Time;durP1;ratioP1;P1;durP2;ratioP2;P2;SDS_P1;SDS_P2;PMS_P1;PMS_P2;Temp;Humidity;BMP_temperature;BMP_pressure;BME280_temperature;BME280_humidity;BME280_pressure;Samples;Min_cycle;Max_cycle;Signal;HPM_P1;HPM_P2
2023/03/04 00:00:25;;;;;;;36.08;23.95;;;6.50;99.90;;;;;;1916782;74;21062;-89
2023/03/04 00:03:30;;;;;;;33.02;22.32;;;6.50;99.90;;;;;;1897537;74;21102;-91
2023/03/04 00:06:21;;;;;;;36.15;23.40;;;6.50;99.90;;;;;;1904127;74;21160;-89
2023/03/04 00:09:16;;;;;;;34.45;23.00;;;6.40;99.90;;;;;;1907741;74;21094;-90
2023/03/04 00:12:08;;;;;;;36.40;24.23;;;6.40;99.90;;;;;;1893585;76;21047;-90
2023/03/04 00:14:59;;;;;;;34.80;23.40;;;6.50;99.90;;;;;;1915332;74;21129;-91
2023/03/04 00:17:50;;;;;;;34.20;23.80;;;6.50;99.90;;;;;;1915775;74;21160;-90
2023/03/04 00:20:41;;;;;;;33.03;23.20;;;6.50;99.90;;;;;;1913986;74;21118;-89
2023/03/04 00:23:35;;;;;;;32.63;23.10;;;6.60;99.90;;;;;;1893239;76;21117;-90
2023/03/04 00:26:26;;;;;;;31.93;23.15;;;6.70;99.90;;;;;;1915445;74;21125;-90
2023/03/04 00:29:17;;;;;;;34.25;23.25;;;6.70;99.90;;;;;;1899273;74;21098;-90
2023/03/04 00:32:09;;;;;;;33.05;23.90;;;6.70;99.90;;;;;;1925225;74;21098;-90
2023/03/04 00:35:01;;;;;;;34.33;23.80;;;6.70;99.90;;;;;;1893538;75;21153;-89
2023/03/04 00:37:52;;;;;;;33.67;22.70;;;6.80;99.90;;;;;;1893829;76;21097;-89
2023/03/04 00:40:44;;;;;;;34.67;22.65;;;6.80;99.90;;;;;;1900112;74;21094;-90
2023/03/04 00:43:36;;;;;;;34.90;22.93;;;6.70;99.90;;;;;;1902939;74;21117;-90
2023/03/04 00:46:28;;;;;;;37.08;24.10;;;6.70;99.90;;;;;;1911656;74;21043;-91
2023/03/04 00:49:20;;;;;;;36.70;23.92;;;6.80;99.90;;;;;;1906202;74;21094;-90
2023/03/04 00:52:11;;;;;;;36.20;22.95;;;6.70;99.90;;;;;;1903497;74;21051;-90
2023/03/04 00:55:04;;;;;;;33.63;22.58;;;6.70;99.90;;;;;;1902162;74;21180;-90
2023/03/04 00:57:56;;;;;;;35.65;22.90;;;6.60;99.90;;;;;;1894061;76;21141;-89
2023/03/04 01:00:48;;;;;;;32.98;21.95;;;6.70;99.90;;;;;;1907528;74;21090;-91
2023/03/04 01:03:41;;;;;;;32.55;23.05;;;6.60;99.90;;;;;;1894745;74;21197;-90
2023/03/04 01:06:33;;;;;;;32.90;22.65;;;6.60;99.90;;;;;;1919404;74;21472;-90
2023/03/04 01:09:25;;;;;;;33.70;23.52;;;6.60;99.90;;;;;;1925880;74;21204;-89
2023/03/04 01:12:16;;;;;;;35.73;25.10;;;6.70;99.90;;;;;;1908350;74;21070;-89
2023/03/04 01:15:10;;;;;;;33.13;23.62;;;6.70;99.90;;;;;;1891067;74;21134;-89
2023/03/04 01:18:02;;;;;;;34.67;24.52;;;6.70;99.90;;;;;;1883634;75;21129;-89
2023/03/04 01:20:54;;;;;;;33.38;23.85;;;6.80;99.90;;;;;;1883331;75;21175;-90
2023/03/04 01:23:46;;;;;;;34.30;24.05;;;6.80;99.90;;;;;;1901972;75;21546;-89
2023/03/04 01:26:38;;;;;;;32.75;22.77;;;6.90;99.90;;;;;;1917010;75;21131;-89
2023/03/04 01:29:29;;;;;;;34.13;24.00;;;6.90;99.90;;;;;;1894644;75;21525;-89
2023/03/04 01:32:21;;;;;;;35.13;24.67;;;6.90;99.90;;;;;;1894744;75;21110;-91
2023/03/04 01:35:12;;;;;;;37.55;25.65;;;6.90;99.90;;;;;;1898302;75;21066;-90
2023/03/04 01:38:07;;;;;;;36.13;24.35;;;6.90;99.90;;;;;;1897851;75;21229;-90
2023/03/04 01:40:59;;;;;;;32.58;23.98;;;6.90;99.90;;;;;;1894836;75;21147;-90
2023/03/04 01:43:52;;;;;;;35.20;23.83;;;6.80;99.90;;;;;;1895243;75;21182;-89
2023/03/04 01:46:47;;;;;;;33.30;24.47;;;6.70;99.90;;;;;;1894552;75;21167;-89
2023/03/04 01:49:39;;;;;;;35.88;24.50;;;6.80;99.90;;;;;;1901335;75;21361;-90
2023/03/04 01:52:30;;;;;;;36.05;24.70;;;6.80;99.90;;;;;;1916363;75;21090;-89
2023/03/04 01:55:23;;;;;;;37.53;24.70;;;6.80;99.90;;;;;;1889012;75;21107;-89
2023/03/04 01:58:15;;;;;;;38.20;25.00;;;6.80;99.90;;;;;;1886263;75;21094;-89
2023/03/04 02:01:07;;;;;;;33.48;23.95;;;6.80;99.90;;;;;;1902970;75;21095;-90
2023/03/04 02:03:58;;;;;;;37.73;24.87;;;6.90;99.90;;;;;;1898006;75;21091;-89
2023/03/04 02:06:51;;;;;;;34.70;24.32;;;6.80;99.90;;;;;;1886700;75;21179;-90
2023/03/04 02:09:42;;;;;;;34.03;23.52;;;6.70;99.90;;;;;;1905969;75;21125;-90
2023/03/04 02:12:39;;;;;;;37.00;25.08;;;6.70;99.90;;;;;;1905108;75;21145;-89
2023/03/04 02:15:31;;;;;;;36.17;25.20;;;6.60;99.90;;;;;;1883426;75;21110;-89
2023/03/04 02:18:26;;;;;;;34.43;23.73;;;6.50;99.90;;;;;;1893989;75;21169;-90
2023/03/04 02:21:21;;;;;;;;;;;6.50;99.90;;;;;;1868148;75;21582;-89
2023/03/04 02:24:16;;;;;;;36.68;23.18;;;6.50;99.90;;;;;;1894031;75;20139;-89
2023/03/04 02:27:08;;;;;;;36.05;24.30;;;6.60;99.90;;;;;;1871786;77;21142;-90
2023/03/04 02:30:01;;;;;;;35.58;23.90;;;6.50;99.90;;;;;;1886194;75;21160;-91
2023/03/04 02:32:54;;;;;;;34.18;23.80;;;6.40;99.90;;;;;;1904676;75;21091;-90
2023/03/04 02:35:52;;;;;;;36.00;23.15;;;6.40;99.90;;;;;;1904685;75;21059;-90
2023/03/04 02:38:44;;;;;;;32.73;23.32;;;6.50;99.90;;;;;;1883000;75;21118;-89
2023/03/04 02:41:39;;;;;;;35.13;24.12;;;6.40;99.90;;;;;;1887863;75;21522;-89
2023/03/04 02:44:34;;;;;;;33.90;24.23;;;6.50;99.90;;;;;;1896540;75;21098;-89
2023/03/04 02:47:25;;;;;;;33.73;23.35;;;6.50;99.90;;;;;;1885774;75;21179;-90
2023/03/04 02:50:18;;;;;;;35.10;23.55;;;6.50;99.90;;;;;;1909004;75;21108;-90
2023/03/04 02:56:00;;;;;;;34.23;24.15;;;6.50;99.90;;;;;;1959904;72;22180;-89
2023/03/04 02:58:53;;;;;;;33.83;24.32;;;6.50;99.90;;;;;;1917266;75;21119;-90
2023/03/04 03:01:45;;;;;;;35.65;24.25;;;6.60;99.90;;;;;;1859032;76;21161;-89
2023/03/04 03:04:38;;;;;;;34.85;24.90;;;6.60;99.90;;;;;;1917527;75;21056;-89
2023/03/04 03:07:35;;;;;;;34.25;23.30;;;6.60;99.90;;;;;;1917637;75;21161;-89
2023/03/04 03:10:28;;;;;;;36.48;24.47;;;6.60;99.90;;;;;;1917405;75;21042;-89
2023/03/04 03:13:20;;;;;;;35.35;23.32;;;6.60;99.90;;;;;;1925877;73;21160;-90
2023/03/04 03:16:16;;;;;;;34.85;24.52;;;6.60;99.90;;;;;;1948844;73;21159;-89
2023/03/04 03:19:07;;;;;;;34.08;24.45;;;6.70;99.90;;;;;;1917592;75;21055;-89
2023/03/04 03:21:59;;;;;;;35.75;24.43;;;6.70;99.90;;;;;;1917780;75;21093;-90
2023/03/04 03:24:51;;;;;;;34.95;24.75;;;6.70;99.90;;;;;;1856718;76;21118;-90
2023/03/04 03:27:43;;;;;;;35.05;24.50;;;6.70;99.90;;;;;;1928322;73;21171;-89
2023/03/04 03:30:36;;;;;;;35.98;25.25;;;6.70;99.90;;;;;;1928695;73;21151;-90
2023/03/04 03:33:28;;;;;;;34.98;24.18;;;6.70;99.90;;;;;;1917179;75;21163;-89
2023/03/04 03:36:20;;;;;;;37.25;25.23;;;6.70;99.90;;;;;;1929735;73;21159;-89
2023/03/04 03:39:11;;;;;;;36.90;24.37;;;6.80;99.90;;;;;;1921864;73;21114;-90
2023/03/04 03:42:03;;;;;;;35.75;24.90;;;6.80;99.90;;;;;;1917445;75;21113;-89
2023/03/04 03:44:55;;;;;;;40.20;25.50;;;6.80;99.90;;;;;;1862353;76;21150;-91
2023/03/04 03:47:49;;;;;;;37.33;25.75;;;6.80;99.90;;;;;;1861710;76;21146;-91
2023/03/04 03:50:41;;;;;;;34.98;25.27;;;6.80;99.90;;;;;;1940271;73;21117;-89
2023/03/04 03:53:32;;;;;;;41.73;25.12;;;6.80;99.90;;;;;;1859916;76;21155;-90
2023/03/04 03:56:24;;;;;;;38.75;25.52;;;6.80;99.90;;;;;;1917310;74;21104;-89
2023/03/04 03:59:19;;;;;;;38.10;25.97;;;6.80;99.90;;;;;;1918016;75;21052;-89
2023/03/04 04:05:03;;;;;;;35.08;24.82;;;7.00;99.90;;;;;;1947241;72;22393;-91
2023/03/04 04:07:54;;;;;;;36.70;26.10;;;6.90;99.90;;;;;;1917379;73;21131;-90
2023/03/04 04:10:45;;;;;;;36.80;25.23;;;6.90;99.90;;;;;;1933639;73;21141;-89
2023/03/04 04:13:37;;;;;;;36.15;24.52;;;6.80;99.90;;;;;;1928568;73;21113;-91
2023/03/04 04:16:29;;;;;;;38.38;25.05;;;6.80;99.90;;;;;;1928310;73;21590;-90
2023/03/04 04:19:26;;;;;;;35.48;24.50;;;6.80;99.90;;;;;;1926547;73;21269;-90
2023/03/04 04:22:20;;;;;;;32.55;23.87;;;6.80;99.90;;;;;;1917506;74;21162;-89
2023/03/04 04:25:12;;;;;;;36.30;25.08;;;6.70;99.90;;;;;;1917055;75;21099;-90
2023/03/04 04:28:03;;;;;;;34.10;24.43;;;6.70;99.90;;;;;;1917309;75;21124;-88
2023/03/04 04:30:55;;;;;;;38.23;24.90;;;6.60;99.90;;;;;;1916622;75;21179;-89
2023/03/04 04:33:46;;;;;;;37.88;25.60;;;6.70;99.90;;;;;;1916985;75;21213;-90
2023/03/04 04:36:38;;;;;;;36.95;25.80;;;6.80;99.90;;;;;;1917787;75;21113;-90
2023/03/04 04:39:29;;;;;;;36.70;26.05;;;6.70;99.90;;;;;;1917408;75;21143;-90
2023/03/04 04:42:20;;;;;;;37.30;25.12;;;6.70;99.90;;;;;;1918533;75;21155;-90
2023/03/04 04:45:15;;;;;;;38.85;26.85;;;6.70;99.90;;;;;;1916839;75;21134;-90
2023/03/04 04:48:10;;;;;;;38.13;26.90;;;6.70;99.90;;;;;;1880253;76;21193;-90
2023/03/04 04:51:02;;;;;;;37.58;26.33;;;6.80;99.90;;;;;;1917718;75;21052;-89
2023/03/04 04:53:53;;;;;;;39.10;26.62;;;6.80;99.90;;;;;;1916998;75;21129;-90
2023/03/04 04:56:45;;;;;;;41.18;26.85;;;6.90;99.90;;;;;;1917649;75;21086;-89
2023/03/04 04:59:37;;;;;;;37.03;25.80;;;6.90;99.90;;;;;;1880691;76;21070;-90
2023/03/04 05:02:29;;;;;;;39.48;25.52;;;6.90;99.90;;;;;;1917443;75;21151;-90
2023/03/04 05:05:30;;;;;;;37.93;26.82;;;6.90;99.90;;;;;;1923632;74;21160;-89
2023/03/04 05:08:22;;;;;;;35.78;26.17;;;6.80;99.90;;;;;;1841359;76;21106;-90
2023/03/04 05:11:13;;;;;;;36.55;26.48;;;6.80;99.90;;;;;;1861772;76;21126;-91
2023/03/04 05:14:06;;;;;;;37.93;26.97;;;6.80;99.90;;;;;;1847360;77;21125;-90
2023/03/04 05:16:58;;;;;;;43.38;27.60;;;6.90;99.90;;;;;;1901914;75;21071;-90
2023/03/04 05:19:49;;;;;;;40.28;27.77;;;6.90;99.90;;;;;;1918988;74;21172;-91
2023/03/04 05:22:41;;;;;;;38.67;27.10;;;6.90;99.90;;;;;;1902177;75;21546;-90
2023/03/04 05:25:32;;;;;;;35.85;26.10;;;6.90;99.90;;;;;;1915981;74;21054;-89
2023/03/04 05:31:06;;;;;;;40.25;26.52;;;6.90;99.90;;;;;;1951353;72;22227;-90
2023/03/04 05:33:58;;;;;;;39.10;26.50;;;6.90;99.90;;;;;;1907401;75;21187;-91
2023/03/04 05:36:49;;;;;;;40.17;27.48;;;6.90;99.90;;;;;;1899262;75;21130;-89
2023/03/04 05:39:40;;;;;;;42.15;27.67;;;6.90;99.90;;;;;;1897262;75;21098;-90
2023/03/04 05:45:13;;;;;;;39.67;27.15;;;6.80;99.90;;;;;;1945557;72;22135;-90
2023/03/04 05:48:06;;;;;;;41.73;28.05;;;6.80;99.90;;;;;;1889698;75;21127;-89
2023/03/04 05:50:58;;;;;;;39.03;27.45;;;6.80;99.90;;;;;;1893845;75;21160;-89
2023/03/04 05:53:50;;;;;;;40.17;26.57;;;6.90;99.90;;;;;;1862971;76;21119;-90
2023/03/04 05:56:41;;;;;;;41.75;28.47;;;6.90;99.90;;;;;;1872747;75;21102;-90
2023/03/04 05:59:33;;;;;;;42.88;27.62;;;6.80;99.90;;;;;;1874417;75;21055;-89
2023/03/04 06:02:25;;;;;;;44.08;29.20;;;6.80;99.90;;;;;;1886348;75;21098;-90
2023/03/04 06:05:17;;;;;;;40.83;28.20;;;6.80;99.90;;;;;;1883181;75;21086;-90
2023/03/04 06:08:09;;;;;;;43.58;29.37;;;6.80;99.90;;;;;;1880302;75;21162;-90
2023/03/04 06:11:04;;;;;;;39.67;27.82;;;6.80;99.90;;;;;;1891685;75;21149;-90
2023/03/04 06:13:56;;;;;;;42.55;29.15;;;6.80;99.90;;;;;;1889863;75;21141;-90
2023/03/04 06:16:47;;;;;;;42.62;28.90;;;6.80;99.90;;;;;;1894730;75;21592;-89
2023/03/04 06:19:40;;;;;;;43.87;29.90;;;6.80;99.90;;;;;;1894953;75;21129;-89
2023/03/04 06:22:32;;;;;;;42.53;29.63;;;6.80;99.90;;;;;;1895308;75;21111;-89
2023/03/04 06:25:24;;;;;;;44.90;29.57;;;6.80;99.90;;;;;;1904969;75;21738;-91
2023/03/04 06:28:23;;;;;;;46.42;30.32;;;6.80;99.90;;;;;;1872953;76;21094;-89
2023/03/04 06:31:36;;;;;;;45.45;30.77;;;6.80;99.90;;;;;;1902728;75;21183;-89
2023/03/04 06:35:01;;;;;;;44.70;29.33;;;6.80;99.90;;;;;;1883969;75;21118;-90
2023/03/04 06:37:54;;;;;;;45.45;30.52;;;6.90;99.90;;;;;;1894799;75;21070;-89
2023/03/04 06:40:50;;;;;;;43.78;29.72;;;6.80;99.90;;;;;;1894627;75;21064;-89
2023/03/04 06:43:42;;;;;;;44.15;30.43;;;6.80;99.90;;;;;;1894227;75;21158;-90
2023/03/04 06:46:36;;;;;;;44.60;30.43;;;6.80;99.90;;;;;;1872498;76;21125;-91
2023/03/04 06:49:27;;;;;;;48.85;32.73;;;6.90;99.90;;;;;;1886989;75;21231;-90
2023/03/04 06:52:19;;;;;;;42.53;29.92;;;6.90;99.90;;;;;;1875396;75;21062;-89
2023/03/04 06:55:12;;;;;;;46.33;31.20;;;6.90;99.90;;;;;;1887478;75;21110;-91
2023/03/04 06:58:03;;;;;;;46.88;30.92;;;6.90;99.90;;;;;;1883249;75;21133;-90
2023/03/04 07:00:56;;;;;;;49.93;31.48;;;6.90;99.90;;;;;;1871938;76;21574;-90
2023/03/04 07:04:07;;;;;;;44.88;30.55;;;6.90;99.90;;;;;;1872578;76;21161;-89
2023/03/04 07:06:59;;;;;;;45.23;30.30;;;6.90;99.90;;;;;;1871974;77;21094;-88
2023/03/04 07:09:51;;;;;;;46.13;30.27;;;6.90;99.90;;;;;;1898369;75;21095;-90
2023/03/04 07:15:27;;;;;;;50.70;38.75;;;7.00;99.90;;;;;;1937722;72;28535;-90
2023/03/04 07:18:19;;;;;;;46.68;32.13;;;7.20;99.90;;;;;;1885130;74;21099;-90
2023/03/04 07:24:06;;;;;;;47.10;31.65;;;7.20;99.90;;;;;;1951908;72;22158;-90
2023/03/04 07:26:58;;;;;;;43.75;32.03;;;7.10;99.90;;;;;;1917264;75;21149;-91
2023/03/04 07:29:50;;;;;;;45.98;31.52;;;7.10;99.90;;;;;;1917290;75;21187;-90
2023/03/04 07:32:42;;;;;;;48.35;32.73;;;7.10;99.90;;;;;;1924751;73;21097;-90
2023/03/04 07:35:34;;;;;;;44.30;30.82;;;7.10;99.90;;;;;;1926227;73;21104;-91
2023/03/04 07:38:25;;;;;;;44.10;30.68;;;7.10;99.90;;;;;;1917852;75;21294;-89
2023/03/04 07:41:18;;;;;;;46.23;30.70;;;7.10;99.90;;;;;;1917459;75;21143;-90
2023/03/04 07:44:14;;;;;;;47.65;31.82;;;7.20;99.90;;;;;;1917342;75;21559;-89
2023/03/04 07:47:08;;;;;;;43.75;31.33;;;7.10;99.90;;;;;;1917482;75;21122;-90
2023/03/04 07:49:59;;;;;;;45.40;31.10;;;7.20;99.90;;;;;;1917638;75;21075;-89
2023/03/04 07:52:51;;;;;;;48.65;32.58;;;7.20;99.90;;;;;;1917705;75;21074;-89
2023/03/04 07:55:52;;;;;;;49.10;32.95;;;7.20;99.90;;;;;;1917760;75;21123;-89
2023/03/04 07:58:55;;;;;;;47.08;32.03;;;7.20;99.90;;;;;;1917526;75;21192;-89
2023/03/04 08:01:48;;;;;;;47.30;32.65;;;7.30;99.90;;;;;;1890832;75;21042;-90
2023/03/04 08:07:56;;;;;;;46.37;32.55;;;7.30;99.90;;;;;;1995763;71;22175;-90
2023/03/04 08:10:46;;;;;;;52.23;33.73;;;7.30;99.90;;;;;;1918167;75;21094;-88
2023/03/04 08:13:37;;;;;;;45.63;31.80;;;7.30;99.90;;;;;;2007794;70;21084;-92
2023/03/04 08:16:29;;;;;;;47.83;31.57;;;7.40;99.90;;;;;;2006993;70;21073;-89
2023/03/04 08:19:21;;;;;;;49.33;32.28;;;7.40;99.90;;;;;;2031138;70;21065;-89
2023/03/04 08:22:25;;;;;;;49.60;33.23;;;7.40;99.90;;;;;;2015725;70;21117;-89
2023/03/04 08:25:17;;;;;;;46.77;33.43;;;7.50;99.90;;;;;;2015310;70;21126;-89
2023/03/04 08:28:11;;;;;;;55.12;34.98;;;7.50;99.90;;;;;;2007333;70;21051;-88
2023/03/04 08:31:04;;;;;;;50.12;32.88;;;7.50;99.90;;;;;;2006807;70;21017;-89
2023/03/04 08:34:03;;;;;;;49.23;33.20;;;7.50;99.90;;;;;;2007013;70;21065;-90
2023/03/04 08:36:55;;;;;;;49.42;33.28;;;7.50;99.90;;;;;;2017509;70;21086;-90
2023/03/04 08:39:46;;;;;;;44.48;31.73;;;7.50;99.90;;;;;;2011277;70;21054;-90
2023/03/04 08:42:48;;;;;;;50.60;33.08;;;7.60;99.90;;;;;;2022077;70;21174;-89
2023/03/04 08:45:42;;;;;;;50.88;34.23;;;7.60;99.90;;;;;;2000631;70;21122;-89
2023/03/04 08:48:33;;;;;;;46.83;32.23;;;7.60;99.90;;;;;;2006376;70;21452;-89
2023/03/04 08:51:25;;;;;;;46.90;31.52;;;7.60;99.90;;;;;;1952853;73;21108;-89
2023/03/04 08:54:16;;;;;;;46.73;32.55;;;7.50;99.90;;;;;;1995350;72;21065;-89
2023/03/04 08:57:13;;;;;;;51.73;33.75;;;7.50;99.90;;;;;;2029504;70;21026;-90
2023/03/04 09:00:06;;;;;;;51.53;33.40;;;7.50;99.90;;;;;;1973578;72;21069;-90
2023/03/04 09:02:57;;;;;;;51.05;34.05;;;7.60;99.90;;;;;;1995707;72;21038;-90
2023/03/04 09:05:50;;;;;;;52.13;34.75;;;7.70;99.90;;;;;;1995444;72;21161;-90
2023/03/04 09:11:54;;;;;;;55.08;35.10;;;7.80;99.90;;;;;;2015535;70;21054;-90
2023/03/04 09:14:45;;;;;;;53.83;34.80;;;7.80;99.90;;;;;;2008114;70;21166;-90
2023/03/04 09:17:39;;;;;;;49.25;34.20;;;7.80;99.90;;;;;;2002190;71;21084;-90
2023/03/04 09:20:30;;;;;;;51.55;34.58;;;7.90;99.90;;;;;;2020657;70;21034;-89
2023/03/04 09:23:22;;;;;;;48.85;33.55;;;8.00;99.90;;;;;;2025885;70;21105;-90
2023/03/04 09:26:20;;;;;;;51.25;35.17;;;8.00;99.90;;;;;;2001271;72;21032;-90
2023/03/04 09:29:12;;;;;;;53.80;35.70;;;8.10;99.90;;;;;;2029607;70;21532;-89
2023/03/04 09:32:08;;;;;;;50.88;35.17;;;8.20;99.90;;;;;;2015968;70;21030;-89
2023/03/04 09:35:00;;;;;;;54.48;35.55;;;8.20;99.90;;;;;;2001222;71;21069;-89
2023/03/04 09:37:52;;;;;;;56.80;34.15;;;8.20;99.90;;;;;;2001814;72;21092;-89
2023/03/04 09:40:46;;;;;;;54.42;35.13;;;8.20;99.90;;;;;;2033477;70;21166;-89
2023/03/04 09:43:43;;;;;;;50.23;34.03;;;8.20;99.90;;;;;;2013603;70;21072;-91
2023/03/04 09:46:49;;;;;;;53.63;35.65;;;8.30;99.90;;;;;;2017439;70;21080;-89
2023/03/04 09:52:54;;;;;;;51.48;35.55;;;8.40;99.90;;;;;;1975899;72;22598;-90
2023/03/04 09:55:48;;;;;;;51.20;35.33;;;8.50;99.90;;;;;;1905696;75;21110;-88
2023/03/04 09:58:47;;;;;;;49.20;34.58;;;8.50;99.90;;;;;;1928192;74;21086;-89
2023/03/04 10:01:38;;;;;;;;;;;8.50;99.90;;;;;;1908021;75;21079;-89
2023/03/04 10:04:34;;;;;;;50.10;34.85;;;8.50;99.90;;;;;;1904374;75;20154;-89
2023/03/04 10:07:33;;;;;;;52.73;35.83;;;8.50;99.90;;;;;;1904812;75;21187;-89
2023/03/04 10:10:27;;;;;;;55.48;36.05;;;8.50;99.90;;;;;;1916385;74;21180;-89
2023/03/04 10:13:23;;;;;;;54.98;35.35;;;8.50;99.90;;;;;;1930706;74;21047;-89
2023/03/04 10:16:17;;;;;;;53.15;35.68;;;8.60;99.90;;;;;;1905377;75;21569;-90
2023/03/04 10:19:21;;;;;;;52.60;34.53;;;8.70;99.90;;;;;;1905273;75;21115;-90
2023/03/04 10:22:19;;;;;;;50.90;34.45;;;8.70;99.90;;;;;;1905343;75;21111;-90
2023/03/04 10:25:19;;;;;;;49.50;33.78;;;8.80;99.90;;;;;;1920214;74;21111;-90
2023/03/04 10:28:14;;;;;;;50.35;34.38;;;8.80;99.90;;;;;;1927736;74;21169;-90
2023/03/04 10:31:11;;;;;;;53.15;34.80;;;8.80;99.90;;;;;;1904966;75;21114;-90
2023/03/04 10:34:03;;;;;;;51.73;34.58;;;8.80;99.90;;;;;;1904730;75;21176;-90
2023/03/04 10:37:02;;;;;;;57.55;36.53;;;8.80;99.90;;;;;;1905096;75;21144;-88
2023/03/04 10:39:54;;;;;;;55.75;37.38;;;9.00;99.90;;;;;;1904935;75;21063;-89
2023/03/04 10:42:47;;;;;;;52.13;34.73;;;8.90;99.90;;;;;;1938074;74;21098;-89
2023/03/04 10:45:41;;;;;;;52.70;35.20;;;8.90;99.90;;;;;;1933079;74;21173;-90
2023/03/04 10:48:33;;;;;;;55.78;34.85;;;9.00;99.90;;;;;;1904931;75;21106;-89
2023/03/04 10:51:28;;;;;;;54.35;36.17;;;9.30;99.90;;;;;;1904827;74;21679;-89
2023/03/04 10:54:28;;;;;;;54.85;35.00;;;9.40;99.90;;;;;;1919771;74;21246;-88
2023/03/04 11:00:03;;;;;;;52.85;34.90;;;9.40;99.90;;;;;;1938330;72;22181;-90
2023/03/04 11:02:56;;;;;;;52.83;35.38;;;9.60;99.90;;;;;;1896645;75;21095;-90
2023/03/04 11:05:53;;;;;;;53.48;34.65;;;9.70;99.90;;;;;;1880287;74;21150;-90
2023/03/04 11:08:54;;;;;;;53.30;35.78;;;9.70;99.90;;;;;;1884581;76;21176;-90
2023/03/04 11:11:46;;;;;;;54.05;35.30;;;9.70;99.90;;;;;;1884880;76;21184;-91
2023/03/04 11:14:42;;;;;;;52.48;35.03;;;9.70;99.90;;;;;;1909160;75;21098;-91
2023/03/04 11:17:44;;;;;;;49.85;33.98;;;9.80;99.90;;;;;;1917017;75;21055;-90
2023/03/04 11:20:39;;;;;;;53.50;34.75;;;9.80;99.90;;;;;;1884249;76;21146;-90
2023/03/04 11:23:36;;;;;;;51.37;34.13;;;9.80;99.90;;;;;;1898088;75;21095;-90
2023/03/04 11:26:31;;;;;;;48.85;32.85;;;9.80;99.90;;;;;;1895043;75;21105;-90
2023/03/04 11:29:29;;;;;;;50.75;33.35;;;9.80;99.90;;;;;;1911936;75;21614;-90
2023/03/04 11:32:24;;;;;;;52.10;34.98;;;9.80;99.90;;;;;;1906930;75;21139;-90
2023/03/04 11:38:14;;;;;;;47.85;32.67;;;9.90;99.90;;;;;;1958645;72;22127;-91
2023/03/04 11:41:13;;;;;;;46.75;31.48;;;9.90;99.90;;;;;;1917822;75;21136;-90
2023/03/04 11:44:07;;;;;;;49.95;31.68;;;10.00;99.90;;;;;;1895116;75;21087;-90
2023/03/04 11:47:22;;;;;;;48.63;31.73;;;10.10;99.90;;;;;;1895131;75;21132;-89
2023/03/04 11:50:46;;;;;;;45.38;31.40;;;10.20;99.90;;;;;;1895006;75;21109;-90
2023/03/04 11:53:47;;;;;;;43.48;30.12;;;10.20;99.90;;;;;;1913117;75;21179;-89
2023/03/04 11:56:44;;;;;;;45.33;31.33;;;10.20;99.90;;;;;;1884183;76;21114;-89
2023/03/04 11:59:50;;;;;;;42.60;30.15;;;10.10;99.90;;;;;;1904208;75;21200;-90
2023/03/04 12:02:53;;;;;;;46.80;32.30;;;10.20;99.90;;;;;;1917285;75;21118;-91
2023/03/04 12:05:52;;;;;;;43.87;30.25;;;10.10;99.90;;;;;;1884230;75;21106;-91
2023/03/04 12:08:58;;;;;;;44.23;29.85;;;10.10;99.90;;;;;;1880531;74;21097;-91
2023/03/04 12:11:55;;;;;;;42.75;28.83;;;10.00;99.90;;;;;;1895282;74;21168;-90
2023/03/04 12:14:49;;;;;;;42.10;28.15;;;10.00;99.90;;;;;;1905945;75;21139;-90
2023/03/04 12:18:15;;;;;;;44.15;29.87;;;10.00;99.90;;;;;;1884630;75;21578;-89
2023/03/04 12:21:18;;;;;;;39.05;27.13;;;9.90;99.90;;;;;;1895335;75;21133;-89
2023/03/04 12:24:42;;;;;;;39.25;25.95;;;9.80;99.90;;;;;;1895681;75;21090;-90
2023/03/04 12:31:45;;;;;;;39.50;26.17;;;9.90;99.90;;;;;;1959742;72;22128;-90
2023/03/04 12:35:02;;;;;;;38.85;26.75;;;9.90;99.90;;;;;;1905347;75;21110;-90
2023/03/04 12:38:23;;;;;;;38.98;27.32;;;9.90;99.90;;;;;;1904926;75;21110;-90
2023/03/04 12:41:27;;;;;;;38.40;26.23;;;9.90;99.90;;;;;;1904859;75;21277;-91
2023/03/04 12:44:20;;;;;;;38.50;26.77;;;10.00;99.90;;;;;;1915115;74;21122;-89
2023/03/04 12:47:21;;;;;;;39.75;26.17;;;10.10;99.90;;;;;;1910524;74;21172;-91
2023/03/04 12:50:34;;;;;;;41.00;26.97;;;10.00;99.90;;;;;;1907502;74;21187;-90
2023/03/04 12:53:30;;;;;;;39.53;26.95;;;9.90;99.90;;;;;;1914911;74;21053;-91
2023/03/04 12:56:26;;;;;;;37.15;27.02;;;9.90;99.90;;;;;;1904837;75;21063;-90
2023/03/04 12:59:38;;;;;;;39.70;26.50;;;10.00;99.90;;;;;;1904314;75;21164;-92
2023/03/04 13:06:03;;;;;;;39.45;27.35;;;10.20;99.90;;;;;;1963312;72;22143;-89
2023/03/04 13:09:00;;;;;;;38.53;26.85;;;9.90;99.90;;;;;;1904961;75;21067;-90
2023/03/04 13:11:56;;;;;;;43.03;28.20;;;9.90;99.90;;;;;;1937817;74;21693;-89
2023/03/04 13:15:19;;;;;;;40.28;27.62;;;10.00;99.90;;;;;;1910051;74;21374;-90
2023/03/04 13:18:33;;;;;;;41.68;27.58;;;10.10;99.90;;;;;;1905627;75;21080;-90
2023/03/04 13:24:38;;;;;;;42.93;29.12;;;10.30;99.90;;;;;;1958128;72;22154;-90
2023/03/04 13:28:18;;;;;;;44.00;29.02;;;10.20;99.90;;;;;;1879913;75;21099;-89
2023/03/04 13:31:26;;;;;;;42.33;28.62;;;10.20;99.90;;;;;;1870199;76;21114;-90
2023/03/04 13:34:44;;;;;;;45.23;30.30;;;10.30;99.90;;;;;;1877500;75;21176;-90
2023/03/04 13:37:37;;;;;;;41.00;28.10;;;10.50;99.90;;;;;;1884835;75;21346;-90
2023/03/04 13:40:49;;;;;;;;;;;;;;;;;;;;;
2023/03/04 13:43:40;;;;;;;45.73;30.65;;;10.60;99.90;;;;;;1873438;76;21182;-89
2023/03/04 13:46:42;;;;;;;42.88;28.83;;;10.60;99.90;;;;;;1873262;76;21118;-90
2023/03/04 13:49:33;;;;;;;47.03;30.68;;;10.70;99.90;;;;;;1904771;75;21086;-90
2023/03/04 13:52:43;;;;;;;43.58;29.52;;;10.60;99.90;;;;;;1884679;75;21035;-90
2023/03/04 13:56:27;;;;;;;42.98;28.67;;;10.60;99.90;;;;;;1874185;75;21569;-92
2023/03/04 13:59:28;;;;;;;42.43;29.10;;;10.60;99.90;;;;;;1872641;76;21186;-91
2023/03/04 14:02:21;;;;;;;44.27;30.00;;;10.50;99.90;;;;;;1871350;76;21091;-91
2023/03/04 14:05:13;;;;;;;42.83;30.00;;;10.60;99.90;;;;;;1894444;75;21176;-89
2023/03/04 14:08:20;;;;;;;46.02;31.17;;;10.70;99.90;;;;;;1896554;75;21106;-90
2023/03/04 14:11:16;;;;;;;40.30;28.52;;;10.90;99.90;;;;;;1882840;75;21099;-91
2023/03/04 14:14:10;;;;;;;41.33;29.48;;;10.90;99.90;;;;;;1873408;76;21659;-91
2023/03/04 14:17:04;;;;;;;44.15;30.77;;;10.60;99.90;;;;;;1874293;75;21129;-90
2023/03/04 14:19:56;;;;;;;42.45;29.60;;;10.60;99.90;;;;;;1874921;75;21116;-90
2023/03/04 14:22:48;;;;;;;42.73;29.75;;;10.70;99.90;;;;;;1876678;75;21111;-90
2023/03/04 14:25:40;;;;;;;44.27;29.45;;;10.90;99.90;;;;;;1907328;75;21114;-90
2023/03/04 14:28:31;;;;;;;44.73;30.00;;;10.80;99.90;;;;;;1873742;75;21130;-91
2023/03/04 14:31:26;;;;;;;39.95;28.40;;;10.90;99.90;;;;;;1898096;75;21824;-91
2023/03/04 14:34:23;;;;;;;41.10;28.67;;;11.00;99.90;;;;;;1876892;76;21142;-90
2023/03/04 14:40:23;;;;;;;44.08;33.83;;;11.10;99.90;;;;;;1937841;72;28035;-90
2023/03/04 14:43:18;;;;;;;41.28;29.63;;;11.30;99.90;;;;;;1918493;75;21062;-89
2023/03/04 14:46:13;;;;;;;40.33;28.80;;;11.30;99.90;;;;;;1917756;75;21063;-91
2023/03/04 14:49:11;;;;;;;43.95;30.10;;;11.40;99.90;;;;;;1918024;75;21518;-90
2023/03/04 14:52:03;;;;;;;40.30;27.50;;;11.40;99.90;;;;;;1917757;75;21168;-91
2023/03/04 14:55:04;;;;;;;37.55;27.05;;;11.50;99.90;;;;;;1917559;75;21090;-90
2023/03/04 14:58:07;;;;;;;36.95;26.73;;;11.70;99.90;;;;;;1875006;76;21087;-91
2023/03/04 15:01:16;;;;;;;41.55;27.62;;;11.70;99.90;;;;;;1933954;73;21095;-91
2023/03/04 15:04:10;;;;;;;37.35;26.15;;;11.70;99.90;;;;;;1935909;74;21106;-90
2023/03/04 15:07:04;;;;;;;39.27;27.80;;;11.80;99.90;;;;;;1930084;74;21121;-91
2023/03/04 15:09:56;;;;;;;40.65;27.93;;;11.90;99.90;;;;;;1918309;75;21094;-92
2023/03/04 15:15:47;;;;;;;36.60;25.35;;;11.60;99.90;;;;;;1957902;72;22139;-90
2023/03/04 15:18:40;;;;;;;39.00;27.20;;;11.70;99.90;;;;;;1917507;75;21837;-91
2023/03/04 15:24:49;;;;;;;39.60;27.22;;;11.80;99.90;;;;;;1994722;71;22103;-91
2023/03/04 15:27:41;;;;;;;39.75;27.02;;;11.80;99.90;;;;;;1930505;73;21106;-90
2023/03/04 15:30:35;;;;;;;38.75;27.27;;;11.50;99.90;;;;;;2008519;70;21069;-91
2023/03/04 15:33:32;;;;;;;39.10;26.95;;;11.60;99.90;;;;;;1995470;72;21142;-92
2023/03/04 15:36:24;;;;;;;39.65;26.27;;;11.70;99.90;;;;;;1995627;72;21085;-90
2023/03/04 15:39:18;;;;;;;36.65;26.02;;;11.70;99.90;;;;;;1995424;72;21041;-90
2023/03/04 15:44:57;;;;;;;35.88;26.12;;;11.60;99.90;;;;;;1954284;72;22161;-91
2023/03/04 15:47:48;;;;;;;37.60;25.97;;;11.60;99.90;;;;;;1884050;75;21522;-91
2023/03/04 15:50:43;;;;;;;37.67;25.97;;;11.60;99.90;;;;;;1914210;75;21109;-90
2023/03/04 15:53:38;;;;;;;38.42;25.68;;;11.40;99.90;;;;;;1913397;75;21052;-90